sensor_id;sensor_type;location;lat;lon;timestamp;pressure;altitude;pressure_sealevel;temperature;humidity
57250;BME280;43102;52.014;-0.680;2022-08-04T00:00:03;100527;;;20.45;54.43
57250;BME280;43102;52.014;-0.680;2022-08-04T00:01:02;100527;;;20.45;54.43
57250;BME280;43102;52.014;-0.680;2022-08-04T00:05:02;100524;;;20.36;54.61
57250;BME280;43102;52.014;-0.680;2022-08-04T00:09:02;100527;;;20.41;54.43
57250;BME280;43102;52.014;-0.680;2022-08-04T00:10:00;100527;;;20.41;54.43
57250;BME280;43102;52.014;-0.680;2022-08-04T00:11:00;100527;;;20.41;54.43
57250;BME280;43102;52.014;-0.680;2022-08-04T00:12:00;100527;;;20.41;54.43
57250;BME280;43102;52.014;-0.680;2022-08-04T00:13:01;100530;;;20.40;54.40
57250;BME280;43102;52.014;-0.680;2022-08-04T00:14:03;100530;;;20.40;54.40
57250;BME280;43102;52.014;-0.680;2022-08-04T00:15:01;100530;;;20.40;54.40
57250;BME280;43102;52.014;-0.680;2022-08-04T00:16:04;100530;;;20.40;54.40
57250;BME280;43102;52.014;-0.680;2022-08-04T00:17:02;100530;;;20.40;54.40
57250;BME280;43102;52.014;-0.680;2022-08-04T00:18:03;100526;;;20.40;54.42
57250;BME280;43102;52.014;-0.680;2022-08-04T00:19:02;100526;;;20.40;54.42
57250;BME280;43102;52.014;-0.680;2022-08-04T00:20:00;100526;;;20.40;54.42
57250;BME280;43102;52.014;-0.680;2022-08-04T00:21:03;100526;;;20.40;54.42
57250;BME280;43102;52.014;-0.680;2022-08-04T00:22:02;100526;;;20.40;54.42
57250;BME280;43102;52.014;-0.680;2022-08-04T00:23:00;100522;;;20.22;54.89
57250;BME280;43102;52.014;-0.680;2022-08-04T00:24:00;100522;;;20.22;54.89
57250;BME280;43102;52.014;-0.680;2022-08-04T00:25:02;100522;;;20.22;54.89
57250;BME280;43102;52.014;-0.680;2022-08-04T00:26:00;100522;;;20.22;54.89
57250;BME280;43102;52.014;-0.680;2022-08-04T00:27:00;100522;;;20.22;54.89
57250;BME280;43102;52.014;-0.680;2022-08-04T00:28:00;100521;;;19.99;55.67
57250;BME280;43102;52.014;-0.680;2022-08-04T00:29:00;100521;;;19.99;55.67
57250;BME280;43102;52.014;-0.680;2022-08-04T00:30:00;100521;;;19.99;55.67
57250;BME280;43102;52.014;-0.680;2022-08-04T00:31:00;100521;;;19.99;55.67
57250;BME280;43102;52.014;-0.680;2022-08-04T00:32:00;100521;;;19.99;55.67
57250;BME280;43102;52.014;-0.680;2022-08-04T00:33:00;100514;;;19.93;55.88
57250;BME280;43102;52.014;-0.680;2022-08-04T00:34:00;100514;;;19.93;55.88
57250;BME280;43102;52.014;-0.680;2022-08-04T00:35:00;100514;;;19.93;55.88
57250;BME280;43102;52.014;-0.680;2022-08-04T00:36:00;100514;;;19.93;55.88
57250;BME280;43102;52.014;-0.680;2022-08-04T00:37:00;100514;;;19.93;55.88
57250;BME280;43102;52.014;-0.680;2022-08-04T00:38:00;100522;;;20.22;55.10
57250;BME280;43102;52.014;-0.680;2022-08-04T00:39:00;100522;;;20.22;55.10
57250;BME280;43102;52.014;-0.680;2022-08-04T00:40:00;100522;;;20.22;55.10
57250;BME280;43102;52.014;-0.680;2022-08-04T00:42:20;100522;;;20.22;55.10
57250;BME280;43102;52.014;-0.680;2022-08-04T00:44:09;100522;;;20.26;54.94
57250;BME280;43102;52.014;-0.680;2022-08-04T00:47:04;100522;;;20.26;54.94
57250;BME280;43102;52.014;-0.680;2022-08-04T00:49:03;100508;;;20.16;55.12
57250;BME280;43102;52.014;-0.680;2022-08-04T00:51:09;100508;;;20.16;55.12
57250;BME280;43102;52.014;-0.680;2022-08-04T00:53:03;100506;;;20.04;55.49
57250;BME280;43102;52.014;-0.680;2022-08-04T00:59:08;100510;;;19.89;55.82
57250;BME280;43102;52.014;-0.680;2022-08-04T01:00:08;100510;;;19.89;55.82
57250;BME280;43102;52.014;-0.680;2022-08-04T01:01:00;100510;;;19.89;55.82
57250;BME280;43102;52.014;-0.680;2022-08-04T01:02:03;100510;;;19.89;55.82
57250;BME280;43102;52.014;-0.680;2022-08-04T01:04:02;100508;;;19.89;55.81
57250;BME280;43102;52.014;-0.680;2022-08-04T01:11:09;100508;;;19.97;55.54
57250;BME280;43102;52.014;-0.680;2022-08-04T01:13:20;100507;;;19.92;55.57
57250;BME280;43102;52.014;-0.680;2022-08-04T01:15:04;100507;;;19.92;55.57
57250;BME280;43102;52.014;-0.680;2022-08-04T01:16:02;100507;;;19.92;55.57
57250;BME280;43102;52.014;-0.680;2022-08-04T01:17:05;100507;;;19.92;55.57
57250;BME280;43102;52.014;-0.680;2022-08-04T01:19:02;100504;;;19.91;55.51
57250;BME280;43102;52.014;-0.680;2022-08-04T01:21:04;100504;;;19.91;55.51
57250;BME280;43102;52.014;-0.680;2022-08-04T01:26:01;100502;;;19.84;55.70
57250;BME280;43102;52.014;-0.680;2022-08-04T01:29:15;100497;;;19.78;55.90
57250;BME280;43102;52.014;-0.680;2022-08-04T01:30:00;100497;;;19.78;55.90
57250;BME280;43102;52.014;-0.680;2022-08-04T01:31:02;100497;;;19.78;55.90
57250;BME280;43102;52.014;-0.680;2022-08-04T01:32:02;100497;;;19.78;55.90
57250;BME280;43102;52.014;-0.680;2022-08-04T01:33:02;100493;;;19.76;56.07
57250;BME280;43102;52.014;-0.680;2022-08-04T01:34:00;100493;;;19.76;56.07
57250;BME280;43102;52.014;-0.680;2022-08-04T01:36:02;100493;;;19.76;56.07
57250;BME280;43102;52.014;-0.680;2022-08-04T01:37:10;100493;;;19.76;56.07
57250;BME280;43102;52.014;-0.680;2022-08-04T01:39:00;100501;;;19.72;56.22
57250;BME280;43102;52.014;-0.680;2022-08-04T01:40:03;100501;;;19.72;56.22
57250;BME280;43102;52.014;-0.680;2022-08-04T01:41:02;100501;;;19.72;56.22
57250;BME280;43102;52.014;-0.680;2022-08-04T01:42:00;100501;;;19.72;56.22
57250;BME280;43102;52.014;-0.680;2022-08-04T01:43:00;100505;;;19.72;56.20
57250;BME280;43102;52.014;-0.680;2022-08-04T01:44:00;100505;;;19.72;56.20
57250;BME280;43102;52.014;-0.680;2022-08-04T01:45:01;100505;;;19.72;56.20
57250;BME280;43102;52.014;-0.680;2022-08-04T01:46:02;100505;;;19.72;56.20
57250;BME280;43102;52.014;-0.680;2022-08-04T01:47:00;100505;;;19.72;56.20
57250;BME280;43102;52.014;-0.680;2022-08-04T01:48:00;100505;;;19.60;56.66
57250;BME280;43102;52.014;-0.680;2022-08-04T01:49:00;100505;;;19.60;56.66
57250;BME280;43102;52.014;-0.680;2022-08-04T01:50:04;100505;;;19.60;56.66
57250;BME280;43102;52.014;-0.680;2022-08-04T01:51:04;100505;;;19.60;56.66
57250;BME280;43102;52.014;-0.680;2022-08-04T01:52:00;100505;;;19.60;56.66
57250;BME280;43102;52.014;-0.680;2022-08-04T01:53:00;100494;;;19.61;56.59
57250;BME280;43102;52.014;-0.680;2022-08-04T01:54:00;100494;;;19.61;56.59
57250;BME280;43102;52.014;-0.680;2022-08-04T01:55:00;100494;;;19.61;56.59
57250;BME280;43102;52.014;-0.680;2022-08-04T01:56:00;100494;;;19.61;56.59
57250;BME280;43102;52.014;-0.680;2022-08-04T01:57:00;100494;;;19.61;56.59
57250;BME280;43102;52.014;-0.680;2022-08-04T01:58:00;100494;;;19.64;56.61
57250;BME280;43102;52.014;-0.680;2022-08-04T01:59:00;100494;;;19.64;56.61
57250;BME280;43102;52.014;-0.680;2022-08-04T02:00:00;100494;;;19.64;56.61
57250;BME280;43102;52.014;-0.680;2022-08-04T02:01:01;100494;;;19.64;56.61
57250;BME280;43102;52.014;-0.680;2022-08-04T02:02:00;100494;;;19.64;56.61
57250;BME280;43102;52.014;-0.680;2022-08-04T02:03:00;100495;;;19.59;56.90
57250;BME280;43102;52.014;-0.680;2022-08-04T02:04:00;100495;;;19.59;56.90
57250;BME280;43102;52.014;-0.680;2022-08-04T02:05:00;100495;;;19.59;56.90
57250;BME280;43102;52.014;-0.680;2022-08-04T02:06:03;100495;;;19.59;56.90
57250;BME280;43102;52.014;-0.680;2022-08-04T02:08:05;100496;;;19.57;56.90
57250;BME280;43102;52.014;-0.680;2022-08-04T02:09:08;100496;;;19.57;56.90
57250;BME280;43102;52.014;-0.680;2022-08-04T02:10:03;100496;;;19.57;56.90
57250;BME280;43102;52.014;-0.680;2022-08-04T02:12:04;100496;;;19.57;56.90
57250;BME280;43102;52.014;-0.680;2022-08-04T02:14:05;100497;;;19.49;57.00
57250;BME280;43102;52.014;-0.680;2022-08-04T02:16:02;100497;;;19.49;57.00
57250;BME280;43102;52.014;-0.680;2022-08-04T02:17:00;100497;;;19.49;57.00
57250;BME280;43102;52.014;-0.680;2022-08-04T02:19:14;100500;;;19.33;57.49
57250;BME280;43102;52.014;-0.680;2022-08-04T02:20:02;100500;;;19.33;57.49
57250;BME280;43102;52.014;-0.680;2022-08-04T02:21:00;100500;;;19.33;57.49
57250;BME280;43102;52.014;-0.680;2022-08-04T02:22:04;100500;;;19.33;57.49
57250;BME280;43102;52.014;-0.680;2022-08-04T02:23:00;100493;;;19.32;57.56
57250;BME280;43102;52.014;-0.680;2022-08-04T02:24:01;100493;;;19.32;57.56
57250;BME280;43102;52.014;-0.680;2022-08-04T02:25:02;100493;;;19.32;57.56
57250;BME280;43102;52.014;-0.680;2022-08-04T02:26:00;100493;;;19.32;57.56
57250;BME280;43102;52.014;-0.680;2022-08-04T02:27:00;100493;;;19.32;57.56
57250;BME280;43102;52.014;-0.680;2022-08-04T02:30:02;100487;;;19.26;57.61
57250;BME280;43102;52.014;-0.680;2022-08-04T02:33:01;100484;;;19.09;58.24
57250;BME280;43102;52.014;-0.680;2022-08-04T02:34:01;100484;;;19.09;58.24
57250;BME280;43102;52.014;-0.680;2022-08-04T02:35:02;100484;;;19.09;58.24
57250;BME280;43102;52.014;-0.680;2022-08-04T02:36:00;100484;;;19.09;58.24
57250;BME280;43102;52.014;-0.680;2022-08-04T02:37:00;100484;;;19.09;58.24
57250;BME280;43102;52.014;-0.680;2022-08-04T02:38:05;100485;;;19.02;58.30
57250;BME280;43102;52.014;-0.680;2022-08-04T02:39:01;100485;;;19.02;58.30
57250;BME280;43102;52.014;-0.680;2022-08-04T02:40:00;100485;;;19.02;58.30
57250;BME280;43102;52.014;-0.680;2022-08-04T02:41:00;100485;;;19.02;58.30
57250;BME280;43102;52.014;-0.680;2022-08-04T02:42:01;100485;;;19.02;58.30
57250;BME280;43102;52.014;-0.680;2022-08-04T02:43:00;100491;;;18.98;58.39
57250;BME280;43102;52.014;-0.680;2022-08-04T02:44:00;100491;;;18.98;58.39
57250;BME280;43102;52.014;-0.680;2022-08-04T02:45:00;100491;;;18.98;58.39
57250;BME280;43102;52.014;-0.680;2022-08-04T02:46:00;100491;;;18.98;58.39
57250;BME280;43102;52.014;-0.680;2022-08-04T02:47:00;100491;;;18.98;58.39
57250;BME280;43102;52.014;-0.680;2022-08-04T02:48:00;100486;;;18.91;58.70
57250;BME280;43102;52.014;-0.680;2022-08-04T02:49:00;100486;;;18.91;58.70
57250;BME280;43102;52.014;-0.680;2022-08-04T02:50:00;100486;;;18.91;58.70
57250;BME280;43102;52.014;-0.680;2022-08-04T02:51:00;100486;;;18.91;58.70
57250;BME280;43102;52.014;-0.680;2022-08-04T02:52:00;100486;;;18.91;58.70
57250;BME280;43102;52.014;-0.680;2022-08-04T02:53:01;100488;;;18.88;58.80
57250;BME280;43102;52.014;-0.680;2022-08-04T02:54:01;100488;;;18.88;58.80
57250;BME280;43102;52.014;-0.680;2022-08-04T02:55:00;100488;;;18.88;58.80
57250;BME280;43102;52.014;-0.680;2022-08-04T02:56:00;100488;;;18.88;58.80
57250;BME280;43102;52.014;-0.680;2022-08-04T02:57:00;100488;;;18.88;58.80
57250;BME280;43102;52.014;-0.680;2022-08-04T02:58:01;100490;;;18.76;58.99
57250;BME280;43102;52.014;-0.680;2022-08-04T03:00:08;100490;;;18.76;58.99
57250;BME280;43102;52.014;-0.680;2022-08-04T03:01:00;100490;;;18.76;58.99
57250;BME280;43102;52.014;-0.680;2022-08-04T03:02:00;100490;;;18.76;58.99
57250;BME280;43102;52.014;-0.680;2022-08-04T03:04:11;100496;;;18.68;59.32
57250;BME280;43102;52.014;-0.680;2022-08-04T03:05:02;100496;;;18.68;59.32
57250;BME280;43102;52.014;-0.680;2022-08-04T03:06:21;100496;;;18.68;59.32
57250;BME280;43102;52.014;-0.680;2022-08-04T03:09:06;100491;;;18.57;59.43
57250;BME280;43102;52.014;-0.680;2022-08-04T03:14:11;100491;;;18.43;59.77
57250;BME280;43102;52.014;-0.680;2022-08-04T03:16:02;100491;;;18.43;59.77
57250;BME280;43102;52.014;-0.680;2022-08-04T03:19:07;100488;;;18.39;59.88
57250;BME280;43102;52.014;-0.680;2022-08-04T03:20:06;100488;;;18.39;59.88
57250;BME280;43102;52.014;-0.680;2022-08-04T03:26:07;100491;;;18.28;60.09
57250;BME280;43102;52.014;-0.680;2022-08-04T03:27:09;100491;;;18.28;60.09
57250;BME280;43102;52.014;-0.680;2022-08-04T03:30:09;100484;;;18.24;60.17
57250;BME280;43102;52.014;-0.680;2022-08-04T03:31:10;100484;;;18.24;60.17
57250;BME280;43102;52.014;-0.680;2022-08-04T03:36:08;100487;;;18.23;60.45
57250;BME280;43102;52.014;-0.680;2022-08-04T03:41:05;100497;;;18.08;60.55
57250;BME280;43102;52.014;-0.680;2022-08-04T03:46:36;100492;;;18.02;60.79
57250;BME280;43102;52.014;-0.680;2022-08-04T03:57:07;100506;;;17.90;61.23
57250;BME280;43102;52.014;-0.680;2022-08-04T04:05:10;100518;;;17.77;62.03
57250;BME280;43102;52.014;-0.680;2022-08-04T04:06:05;100518;;;17.77;62.03
57250;BME280;43102;52.014;-0.680;2022-08-04T04:12:06;100518;;;17.67;62.23
57250;BME280;43102;52.014;-0.680;2022-08-04T04:18:08;100529;;;17.45;62.73
57250;BME280;43102;52.014;-0.680;2022-08-04T04:25:04;100529;;;17.41;62.81
57250;BME280;43102;52.014;-0.680;2022-08-04T04:30:03;100530;;;17.33;63.07
57250;BME280;43102;52.014;-0.680;2022-08-04T04:33:19;100531;;;17.28;63.63
57250;BME280;43102;52.014;-0.680;2022-08-04T04:34:04;100531;;;17.28;63.63
57250;BME280;43102;52.014;-0.680;2022-08-04T04:36:18;100531;;;17.28;63.63
57250;BME280;43102;52.014;-0.680;2022-08-04T04:39:11;100534;;;17.20;63.73
57250;BME280;43102;52.014;-0.680;2022-08-04T04:45:02;100539;;;17.20;63.71
57250;BME280;43102;52.014;-0.680;2022-08-04T04:46:20;100539;;;17.20;63.71
57250;BME280;43102;52.014;-0.680;2022-08-04T04:47:04;100539;;;17.20;63.71
57250;BME280;43102;52.014;-0.680;2022-08-04T04:49:03;100542;;;17.17;63.73
57250;BME280;43102;52.014;-0.680;2022-08-04T04:53:05;100542;;;17.16;63.77
57250;BME280;43102;52.014;-0.680;2022-08-04T04:56:02;100542;;;17.16;63.77
57250;BME280;43102;52.014;-0.680;2022-08-04T04:58:00;100543;;;17.09;63.98
57250;BME280;43102;52.014;-0.680;2022-08-04T04:59:00;100543;;;17.09;63.98
57250;BME280;43102;52.014;-0.680;2022-08-04T05:00:03;100543;;;17.09;63.98
57250;BME280;43102;52.014;-0.680;2022-08-04T05:06:09;100546;;;17.08;64.49
57250;BME280;43102;52.014;-0.680;2022-08-04T05:10:05;100542;;;17.09;64.42
57250;BME280;43102;52.014;-0.680;2022-08-04T05:13:05;100545;;;17.09;64.48
57250;BME280;43102;52.014;-0.680;2022-08-04T05:14:01;100545;;;17.09;64.48
57250;BME280;43102;52.014;-0.680;2022-08-04T05:15:00;100545;;;17.09;64.48
57250;BME280;43102;52.014;-0.680;2022-08-04T05:16:05;100545;;;17.09;64.48
57250;BME280;43102;52.014;-0.680;2022-08-04T05:18:00;100552;;;17.06;64.85
57250;BME280;43102;52.014;-0.680;2022-08-04T05:19:10;100552;;;17.06;64.85
57250;BME280;43102;52.014;-0.680;2022-08-04T05:20:09;100552;;;17.06;64.85
57250;BME280;43102;52.014;-0.680;2022-08-04T05:21:05;100552;;;17.06;64.85
57250;BME280;43102;52.014;-0.680;2022-08-04T05:22:01;100552;;;17.06;64.85
57250;BME280;43102;52.014;-0.680;2022-08-04T05:23:01;100554;;;17.08;64.98
57250;BME280;43102;52.014;-0.680;2022-08-04T05:24:01;100554;;;17.08;64.98
57250;BME280;43102;52.014;-0.680;2022-08-04T05:25:02;100554;;;17.08;64.98
57250;BME280;43102;52.014;-0.680;2022-08-04T05:26:00;100554;;;17.08;64.98
57250;BME280;43102;52.014;-0.680;2022-08-04T05:27:00;100554;;;17.08;64.98
57250;BME280;43102;52.014;-0.680;2022-08-04T05:29:02;100558;;;17.15;64.87
57250;BME280;43102;52.014;-0.680;2022-08-04T05:30:00;100558;;;17.15;64.87
57250;BME280;43102;52.014;-0.680;2022-08-04T05:31:01;100558;;;17.15;64.87
57250;BME280;43102;52.014;-0.680;2022-08-04T05:32:01;100558;;;17.15;64.87
57250;BME280;43102;52.014;-0.680;2022-08-04T05:33:03;100557;;;17.06;65.68
57250;BME280;43102;52.014;-0.680;2022-08-04T05:34:08;100557;;;17.06;65.68
57250;BME280;43102;52.014;-0.680;2022-08-04T05:35:02;100557;;;17.06;65.68
57250;BME280;43102;52.014;-0.680;2022-08-04T05:36:02;100557;;;17.06;65.68
57250;BME280;43102;52.014;-0.680;2022-08-04T05:37:02;100557;;;17.06;65.68
57250;BME280;43102;52.014;-0.680;2022-08-04T05:38:00;100561;;;17.17;65.66
57250;BME280;43102;52.014;-0.680;2022-08-04T05:39:00;100561;;;17.17;65.66
57250;BME280;43102;52.014;-0.680;2022-08-04T05:40:02;100561;;;17.17;65.66
57250;BME280;43102;52.014;-0.680;2022-08-04T05:41:00;100561;;;17.17;65.66
57250;BME280;43102;52.014;-0.680;2022-08-04T05:42:00;100561;;;17.17;65.66
57250;BME280;43102;52.014;-0.680;2022-08-04T05:43:00;100563;;;17.23;65.22
57250;BME280;43102;52.014;-0.680;2022-08-04T05:44:00;100563;;;17.23;65.22
57250;BME280;43102;52.014;-0.680;2022-08-04T05:45:00;100563;;;17.23;65.22
57250;BME280;43102;52.014;-0.680;2022-08-04T05:46:00;100563;;;17.23;65.22
57250;BME280;43102;52.014;-0.680;2022-08-04T05:47:00;100563;;;17.23;65.22
57250;BME280;43102;52.014;-0.680;2022-08-04T05:48:00;100566;;;17.38;65.06
57250;BME280;43102;52.014;-0.680;2022-08-04T05:49:00;100566;;;17.38;65.06
57250;BME280;43102;52.014;-0.680;2022-08-04T05:50:00;100566;;;17.38;65.06
57250;BME280;43102;52.014;-0.680;2022-08-04T05:51:00;100566;;;17.38;65.06
57250;BME280;43102;52.014;-0.680;2022-08-04T05:52:00;100566;;;17.38;65.06
57250;BME280;43102;52.014;-0.680;2022-08-04T05:53:00;100575;;;17.72;64.50
57250;BME280;43102;52.014;-0.680;2022-08-04T05:54:00;100575;;;17.72;64.50
57250;BME280;43102;52.014;-0.680;2022-08-04T05:55:00;100575;;;17.72;64.50
57250;BME280;43102;52.014;-0.680;2022-08-04T05:56:00;100575;;;17.72;64.50
57250;BME280;43102;52.014;-0.680;2022-08-04T05:57:01;100575;;;17.72;64.50
57250;BME280;43102;52.014;-0.680;2022-08-04T05:58:00;100578;;;18.23;63.25
57250;BME280;43102;52.014;-0.680;2022-08-04T05:59:00;100578;;;18.23;63.25
57250;BME280;43102;52.014;-0.680;2022-08-04T06:00:00;100578;;;18.23;63.25
57250;BME280;43102;52.014;-0.680;2022-08-04T06:01:00;100578;;;18.23;63.25
57250;BME280;43102;52.014;-0.680;2022-08-04T06:02:00;100578;;;18.23;63.25
57250;BME280;43102;52.014;-0.680;2022-08-04T06:03:00;100577;;;19.05;61.70
57250;BME280;43102;52.014;-0.680;2022-08-04T06:04:00;100577;;;19.05;61.70
57250;BME280;43102;52.014;-0.680;2022-08-04T06:05:00;100577;;;19.05;61.70
57250;BME280;43102;52.014;-0.680;2022-08-04T06:06:00;100577;;;19.05;61.70
57250;BME280;43102;52.014;-0.680;2022-08-04T06:07:00;100577;;;19.05;61.70
57250;BME280;43102;52.014;-0.680;2022-08-04T06:08:00;100582;;;20.14;58.96
57250;BME280;43102;52.014;-0.680;2022-08-04T06:09:00;100582;;;20.14;58.96
57250;BME280;43102;52.014;-0.680;2022-08-04T06:10:00;100582;;;20.14;58.96
57250;BME280;43102;52.014;-0.680;2022-08-04T06:11:02;100582;;;20.14;58.96
57250;BME280;43102;52.014;-0.680;2022-08-04T06:12:01;100582;;;20.14;58.96
57250;BME280;43102;52.014;-0.680;2022-08-04T06:13:00;100582;;;20.94;57.18
57250;BME280;43102;52.014;-0.680;2022-08-04T06:14:02;100582;;;20.94;57.18
57250;BME280;43102;52.014;-0.680;2022-08-04T06:15:00;100582;;;20.94;57.18
57250;BME280;43102;52.014;-0.680;2022-08-04T06:16:00;100582;;;20.94;57.18
57250;BME280;43102;52.014;-0.680;2022-08-04T06:17:00;100582;;;20.94;57.18
57250;BME280;43102;52.014;-0.680;2022-08-04T06:18:01;100585;;;21.80;55.68
57250;BME280;43102;52.014;-0.680;2022-08-04T06:19:02;100585;;;21.80;55.68
57250;BME280;43102;52.014;-0.680;2022-08-04T06:20:00;100585;;;21.80;55.68
57250;BME280;43102;52.014;-0.680;2022-08-04T06:21:00;100585;;;21.80;55.68
57250;BME280;43102;52.014;-0.680;2022-08-04T06:22:00;100585;;;21.80;55.68
57250;BME280;43102;52.014;-0.680;2022-08-04T06:23:00;100586;;;21.69;54.08
57250;BME280;43102;52.014;-0.680;2022-08-04T06:24:00;100586;;;21.69;54.08
57250;BME280;43102;52.014;-0.680;2022-08-04T06:25:00;100586;;;21.69;54.08
57250;BME280;43102;52.014;-0.680;2022-08-04T06:26:00;100586;;;21.69;54.08
57250;BME280;43102;52.014;-0.680;2022-08-04T06:27:00;100586;;;21.69;54.08
57250;BME280;43102;52.014;-0.680;2022-08-04T06:28:00;100591;;;21.97;53.22
57250;BME280;43102;52.014;-0.680;2022-08-04T06:29:00;100591;;;21.97;53.22
57250;BME280;43102;52.014;-0.680;2022-08-04T06:30:00;100591;;;21.97;53.22
57250;BME280;43102;52.014;-0.680;2022-08-04T06:31:00;100591;;;21.97;53.22
57250;BME280;43102;52.014;-0.680;2022-08-04T06:32:00;100591;;;21.97;53.22
57250;BME280;43102;52.014;-0.680;2022-08-04T06:33:00;100587;;;21.72;53.57
57250;BME280;43102;52.014;-0.680;2022-08-04T06:34:00;100587;;;21.72;53.57
57250;BME280;43102;52.014;-0.680;2022-08-04T06:35:00;100587;;;21.72;53.57
57250;BME280;43102;52.014;-0.680;2022-08-04T06:36:00;100587;;;21.72;53.57
57250;BME280;43102;52.014;-0.680;2022-08-04T06:37:00;100587;;;21.72;53.57
57250;BME280;43102;52.014;-0.680;2022-08-04T06:38:00;100599;;;22.29;53.02
57250;BME280;43102;52.014;-0.680;2022-08-04T06:39:00;100599;;;22.29;53.02
57250;BME280;43102;52.014;-0.680;2022-08-04T06:40:00;100599;;;22.29;53.02
57250;BME280;43102;52.014;-0.680;2022-08-04T06:41:00;100599;;;22.29;53.02
57250;BME280;43102;52.014;-0.680;2022-08-04T06:42:00;100599;;;22.29;53.02
57250;BME280;43102;52.014;-0.680;2022-08-04T06:43:00;100600;;;22.59;51.86
57250;BME280;43102;52.014;-0.680;2022-08-04T06:44:00;100600;;;22.59;51.86
57250;BME280;43102;52.014;-0.680;2022-08-04T06:45:00;100600;;;22.59;51.86
57250;BME280;43102;52.014;-0.680;2022-08-04T06:46:00;100600;;;22.59;51.86
57250;BME280;43102;52.014;-0.680;2022-08-04T06:47:00;100600;;;22.59;51.86
57250;BME280;43102;52.014;-0.680;2022-08-04T06:48:00;100604;;;23.19;49.37
57250;BME280;43102;52.014;-0.680;2022-08-04T06:49:00;100604;;;23.19;49.37
57250;BME280;43102;52.014;-0.680;2022-08-04T06:50:00;100604;;;23.19;49.37
57250;BME280;43102;52.014;-0.680;2022-08-04T06:51:00;100604;;;23.19;49.37
57250;BME280;43102;52.014;-0.680;2022-08-04T06:52:00;100604;;;23.19;49.37
57250;BME280;43102;52.014;-0.680;2022-08-04T06:53:00;100608;;;23.09;48.94
57250;BME280;43102;52.014;-0.680;2022-08-04T06:54:00;100608;;;23.09;48.94
57250;BME280;43102;52.014;-0.680;2022-08-04T06:55:00;100608;;;23.09;48.94
57250;BME280;43102;52.014;-0.680;2022-08-04T06:56:00;100608;;;23.09;48.94
57250;BME280;43102;52.014;-0.680;2022-08-04T06:57:00;100608;;;23.09;48.94
57250;BME280;43102;52.014;-0.680;2022-08-04T06:58:00;100610;;;23.06;49.88
57250;BME280;43102;52.014;-0.680;2022-08-04T06:59:00;100610;;;23.06;49.88
57250;BME280;43102;52.014;-0.680;2022-08-04T07:00:01;100610;;;23.06;49.88
57250;BME280;43102;52.014;-0.680;2022-08-04T07:01:00;100610;;;23.06;49.88
57250;BME280;43102;52.014;-0.680;2022-08-04T07:02:00;100610;;;23.06;49.88
57250;BME280;43102;52.014;-0.680;2022-08-04T07:03:00;100626;;;23.06;50.78
57250;BME280;43102;52.014;-0.680;2022-08-04T07:04:00;100626;;;23.06;50.78
57250;BME280;43102;52.014;-0.680;2022-08-04T07:05:00;100626;;;23.06;50.78
57250;BME280;43102;52.014;-0.680;2022-08-04T07:06:00;100626;;;23.06;50.78
57250;BME280;43102;52.014;-0.680;2022-08-04T07:07:00;100626;;;23.06;50.78
57250;BME280;43102;52.014;-0.680;2022-08-04T07:08:00;100628;;;22.34;50.92
57250;BME280;43102;52.014;-0.680;2022-08-04T07:09:00;100628;;;22.34;50.92
57250;BME280;43102;52.014;-0.680;2022-08-04T07:10:00;100628;;;22.34;50.92
57250;BME280;43102;52.014;-0.680;2022-08-04T07:11:00;100628;;;22.34;50.92
57250;BME280;43102;52.014;-0.680;2022-08-04T07:12:00;100628;;;22.34;50.92
57250;BME280;43102;52.014;-0.680;2022-08-04T07:13:00;100626;;;21.71;52.86
57250;BME280;43102;52.014;-0.680;2022-08-04T07:14:00;100626;;;21.71;52.86
57250;BME280;43102;52.014;-0.680;2022-08-04T07:15:00;100626;;;21.71;52.86
57250;BME280;43102;52.014;-0.680;2022-08-04T07:16:00;100626;;;21.71;52.86
57250;BME280;43102;52.014;-0.680;2022-08-04T07:17:00;100626;;;21.71;52.86
57250;BME280;43102;52.014;-0.680;2022-08-04T07:18:00;100632;;;21.46;53.42
57250;BME280;43102;52.014;-0.680;2022-08-04T07:19:00;100632;;;21.46;53.42
57250;BME280;43102;52.014;-0.680;2022-08-04T07:20:00;100632;;;21.46;53.42
57250;BME280;43102;52.014;-0.680;2022-08-04T07:21:00;100632;;;21.46;53.42
57250;BME280;43102;52.014;-0.680;2022-08-04T07:22:00;100632;;;21.46;53.42
57250;BME280;43102;52.014;-0.680;2022-08-04T07:23:00;100633;;;21.24;54.75
57250;BME280;43102;52.014;-0.680;2022-08-04T07:24:00;100633;;;21.24;54.75
57250;BME280;43102;52.014;-0.680;2022-08-04T07:25:00;100633;;;21.24;54.75
57250;BME280;43102;52.014;-0.680;2022-08-04T07:26:00;100633;;;21.24;54.75
57250;BME280;43102;52.014;-0.680;2022-08-04T07:27:00;100633;;;21.24;54.75
57250;BME280;43102;52.014;-0.680;2022-08-04T07:28:00;100638;;;21.12;55.04
57250;BME280;43102;52.014;-0.680;2022-08-04T07:29:00;100638;;;21.12;55.04
57250;BME280;43102;52.014;-0.680;2022-08-04T07:30:00;100638;;;21.12;55.04
57250;BME280;43102;52.014;-0.680;2022-08-04T07:31:00;100638;;;21.12;55.04
57250;BME280;43102;52.014;-0.680;2022-08-04T07:32:00;100638;;;21.12;55.04
57250;BME280;43102;52.014;-0.680;2022-08-04T07:33:00;100635;;;21.03;55.72
57250;BME280;43102;52.014;-0.680;2022-08-04T07:34:00;100635;;;21.03;55.72
57250;BME280;43102;52.014;-0.680;2022-08-04T07:35:00;100635;;;21.03;55.72
57250;BME280;43102;52.014;-0.680;2022-08-04T07:36:00;100635;;;21.03;55.72
57250;BME280;43102;52.014;-0.680;2022-08-04T07:37:00;100635;;;21.03;55.72
57250;BME280;43102;52.014;-0.680;2022-08-04T07:38:00;100636;;;20.99;55.58
57250;BME280;43102;52.014;-0.680;2022-08-04T07:39:00;100636;;;20.99;55.58
57250;BME280;43102;52.014;-0.680;2022-08-04T07:40:00;100636;;;20.99;55.58
57250;BME280;43102;52.014;-0.680;2022-08-04T07:41:00;100636;;;20.99;55.58
57250;BME280;43102;52.014;-0.680;2022-08-04T07:42:00;100636;;;20.99;55.58
57250;BME280;43102;52.014;-0.680;2022-08-04T07:43:00;100641;;;20.64;55.98